Currently 52°F in Anza, California, USA
52°F
52°F / 41°F
8 mph NW
0.00"
Monday, February 20, 2017 9:49 AM PST

Anza, California Weather Summary
Last 36 Hours

Temperature Winds Hourly Humidity Dewpoint
Time Report Norm Report Norm Max Gusts Precip. Rpt. Norm Rpt. Norm Pressure
1,2Mon 09:49 AM  51.8°F  59°F  8 mph NW  9 mph  15 mph  0.00"  96%  40%  51°F  34°F  N/A
Mon 09:00 AM  49.0°F  57°F  8 mph NW  8 mph  10 mph  0.00"  99%  45%  49°F  35°F  N/A
Mon 08:00 AM  46.3°F  52°F  calm  6 mph  none  0.00"  100%  52%  46°F  34°F  N/A
Mon 07:00 AM  43.9°F  44°F  calm  4 mph  none  0.00"  100%  63%  44°F  31°F  N/A
Mon 06:00 AM  42.1°F  42°F  calm  4 mph  13 mph  0.00"  100%  64%  42°F  30°F  N/A
3Mon 05:19 AM  41.3°F  43°F  6 mph S  4 mph  11 mph  ----  100%  62%  41°F  30°F  N/A
Mon 05:00 AM  41.5°F  43°F  6 mph S  4 mph  16 mph  0.00"  100%  63%  41°F  30°F  N/A
Mon 04:00 AM  41.8°F  43°F  10 mph NW  4 mph  15 mph  0.00"  100%  63%  42°F  31°F  N/A
Mon 03:00 AM  41.5°F  44°F  9 mph N  5 mph  13 mph  0.00"  100%  63%  42°F  31°F  N/A
Mon 02:00 AM  41.7°F  44°F  4 mph N  4 mph  8 mph  0.00"  100%  64%  42°F  32°F  N/A
Mon 01:00 AM  42.2°F  43°F  5 mph NW  5 mph  12 mph  0.00"  100%  65%  42°F  32°F  N/A
Mon 12:00 AM  42.3°F  44°F  9 mph W  4 mph  11 mph  0.00"  100%  66%  42°F  32°F  N/A
Sun 11:00 PM  42.2°F  43°F  calm  4 mph  12 mph  0.00"  100%  67%  42°F  33°F  N/A
Sun 10:00 PM  42.5°F  44°F  9 mph NW  4 mph  15 mph  0.00"  100%  65%  42°F  33°F  N/A
Sun 09:00 PM  42.9°F  45°F  7 mph NW  4 mph  13 mph  0.00"  100%  64%  43°F  33°F  N/A
Sun 08:00 PM  43.2°F  47°F  6 mph NW  4 mph  13 mph  0.00"  100%  63%  43°F  34°F  N/A
Sun 07:00 PM  43.4°F  49°F  10 mph NW  4 mph  13 mph  0.00"  100%  59%  43°F  35°F  N/A
Sun 06:00 PM  43.6°F  53°F  6 mph NW  5 mph  16 mph  0.00"  100%  52%  44°F  35°F  N/A
Sun 05:00 PM  43.9°F  59°F  9 mph NW  7 mph  19 mph  0.00"  99%  43%  44°F  36°F  N/A
Sun 04:00 PM  44.5°F  62°F  11 mph NW  9 mph  23 mph  0.00"  98%  39%  44°F  35°F  N/A
Sun 03:00 PM  44.8°F  63°F  15 mph W  10 mph  23 mph  0.00"  98%  37%  44°F  35°F  N/A
Sun 02:00 PM  47.1°F  64°F  13 mph NW  10 mph  22 mph  0.00"  96%  35%  46°F  35°F  N/A
Sun 01:00 PM  47.4°F  64°F  13 mph NW  11 mph  21 mph  0.00"  96%  35%  46°F  34°F  N/A
Sun 12:00 PM  45.4°F  63°F  9 mph NW  11 mph  17 mph  0.00"  98%  35%  45°F  34°F  N/A
Sun 11:00 AM  45.9°F  62°F  13 mph W  11 mph  17 mph  0.00"  98%  37%  45°F  34°F  N/A
Sun 10:00 AM  44.3°F  60°F  9 mph NW  9 mph  17 mph  0.00"  100%  39%  44°F  34°F  N/A
Sun 09:00 AM  43.6°F  58°F  12 mph W  8 mph  18 mph  0.00"  100%  43%  44°F  35°F  N/A
Sun 08:00 AM  42.8°F  52°F  7 mph NW  5 mph  13 mph  0.00"  100%  51%  43°F  34°F  N/A
Sun 07:00 AM  42.4°F  44°F  9 mph NW  4 mph  15 mph  0.00"  100%  62%  42°F  31°F  N/A
Sun 06:00 AM  42.5°F  43°F  8 mph NW  4 mph  14 mph  0.00"  100%  62%  42°F  30°F  N/A
Sun 05:00 AM  43.0°F  43°F  7 mph NW  4 mph  14 mph  0.01"  100%  62%  43°F  31°F  N/A
Sun 04:00 AM  42.8°F  44°F  8 mph NW  4 mph  13 mph  0.00"  100%  62%  43°F  31°F  N/A
Sun 03:00 AM  42.7°F  45°F  6 mph NW  5 mph  14 mph  0.00"  100%  61%  43°F  32°F  N/A
Sun 02:00 AM  43.1°F  45°F  3 mph NW  4 mph  13 mph  0.00"  100%  63%  43°F  32°F  N/A
Sun 01:00 AM  43.4°F  44°F  7 mph NW  5 mph  13 mph  0.00"  100%  65%  43°F  32°F  N/A
Sun 12:00 AM  43.5°F  44°F  8 mph NW  4 mph  12 mph  0.00"  100%  65%  43°F  33°F  N/A
Sat 11:00 PM  43.3°F  44°F  8 mph NW  4 mph  15 mph  0.00"  99%  66%  43°F  33°F  N/A
Sat 10:00 PM  43.6°F  45°F  7 mph W  4 mph  14 mph  0.00"  99%  65%  43°F  33°F  N/A

  1. Current weather data. No green row appears if the current weather data is also the high or low for the current day.
  2. High temperature for the current day.
  3. Low temperature for the current day.

The Anza, California weather pages are a service of WeatherCurrents. The Anza Valley is southwestern Riverside County, east of Temecula and Aguanga, south of Mount San Jacinto and west of Mount Santa Rosa.
Copyright ©Mon Feb 20 09:49:56 PST 2017  WeatherCurrents. All rights reserved. - Submit questions and comments - Privacy Policy

This page automatically refreshes every 10 minutes.